Time;durP1;ratioP1;P1;durP2;ratioP2;P2;SDS_P1;SDS_P2;PMS_P1;PMS_P2;Temp;Humidity;BMP_temperature;BMP_pressure;BME280_temperature;BME280_humidity;BME280_pressure;Samples;Min_cycle;Max_cycle;Signal;HPM_P1;HPM_P2
2021/11/26 00:00:53;;;;;;;7.00;3.72;;;;;;;1.07;82.91;98004.97;4962690;28;20073;-63
2021/11/26 00:03:19;;;;;;;4.32;3.92;;;;;;;1.04;83.05;98004.94;4954983;28;20113;-63
2021/11/26 00:05:44;;;;;;;6.95;3.72;;;;;;;1.29;83.54;98000.84;4954783;28;20035;-63
2021/11/26 00:08:10;;;;;;;2.25;2.08;;;;;;;1.15;82.20;97993.09;4955098;28;20031;-63
2021/11/26 00:10:35;;;;;;;7.82;4.95;;;;;;;1.18;82.99;97988.03;4954782;28;20062;-63
2021/11/26 00:13:05;;;;;;;3.95;3.60;;;;;;;1.13;82.50;97987.16;4954949;29;20027;-63
2021/11/26 00:17:57;;;;;;;3.15;2.95;;;;;;;1.22;81.53;97974.44;4955031;29;20367;-67
2021/11/26 00:20:23;;;;;;;3.97;3.67;;;;;;;1.07;83.35;97964.16;4954519;28;20066;-67
2021/11/26 00:22:49;;;;;;;5.70;2.78;;;;;;;0.98;82.35;97970.03;4953786;28;20023;-67
2021/11/26 00:25:15;;;;;;;2.20;2.10;;;;;;;0.93;83.12;97965.75;4954647;28;20046;-67
2021/11/26 00:27:41;;;;;;;4.95;3.25;;;;;;;0.88;82.84;97958.06;4954644;28;20027;-67
2021/11/26 00:30:07;;;;;;;4.10;3.80;;;;;;;0.87;83.11;97946.19;4962083;28;20535;-67
2021/11/26 00:32:33;;;;;;;5.15;4.40;;;;;;;0.87;83.09;97945.28;4968276;28;20022;-67
2021/11/26 00:34:58;;;;;;;3.55;3.30;;;;;;;0.90;82.83;97945.31;4973707;28;20030;-67
2021/11/26 00:37:23;;;;;;;7.25;3.97;;;;;;;1.27;85.29;97942.16;4973351;28;20015;-67
2021/11/26 00:39:49;;;;;;;3.85;2.45;;;;;;;1.52;83.09;97932.06;4972685;28;20030;-68
2021/11/26 00:42:15;;;;;;;2.65;2.47;;;;;;;1.59;82.16;97923.56;4973020;28;20030;-67
2021/11/26 00:44:40;;;;;;;4.03;3.55;;;;;;;1.70;83.34;97921.94;4972794;28;20033;-67
2021/11/26 00:47:05;;;;;;;5.13;4.13;;;;;;;1.56;80.93;97921.03;4973261;28;20544;-67
2021/11/26 00:49:31;;;;;;;4.68;4.22;;;;;;;1.49;81.49;97916.72;4973630;28;20053;-67
2021/11/26 00:51:56;;;;;;;3.70;3.40;;;;;;;1.52;83.01;97911.63;4972496;28;20027;-67
2021/11/26 00:54:21;;;;;;;3.35;3.13;;;;;;;1.61;82.99;97906.56;4973563;28;20027;-67
2021/11/26 00:56:47;;;;;;;4.55;3.80;;;;;;;1.56;80.65;97908.25;4973385;28;20583;-67
2021/11/26 00:59:12;;;;;;;3.67;3.38;;;;;;;1.52;81.62;97903.97;4972242;28;20473;-67
2021/11/26 05:17:35;;;;;;;7.78;5.10;;;;;;;0.81;90.76;97669.91;4933313;29;20089;-70
2021/11/26 05:20:00;;;;;;;10.55;6.85;;;;;;;0.70;90.35;97660.53;4933419;29;20032;-70
2021/11/26 05:22:26;;;;;;;5.40;4.95;;;;;;;0.62;89.95;97663.91;4934712;29;20111;-70
2021/11/26 05:24:51;;;;;;;4.75;3.65;;;;;;;0.68;90.21;97649.50;4934755;29;20100;-70
2021/11/26 05:27:17;;;;;;;8.30;5.65;;;;;;;0.64;90.23;97652.03;4934414;29;20060;-70
2021/11/26 05:29:42;;;;;;;9.45;5.07;;;;;;;0.62;91.37;97648.63;4979130;23;20122;-73
2021/11/26 05:32:09;;;;;;;3.35;3.15;;;;;;;0.54;91.62;97651.16;4964929;28;20106;-75
2021/11/26 05:34:35;;;;;;;3.85;3.55;;;;;;;0.49;92.07;97653.69;4973186;28;20022;-74
2021/11/26 05:37:00;;;;;;;7.97;4.68;;;;;;;0.46;92.64;97653.66;4973054;28;20023;-74
2021/11/26 05:39:25;;;;;;;3.90;3.58;;;;;;;0.44;93.20;97649.44;4972840;28;20023;-74
2021/11/26 05:41:51;;;;;;;3.45;2.97;;;;;;;0.40;92.85;97661.28;4946967;28;20046;-74
2021/11/26 05:44:16;;;;;;;4.50;4.10;;;;;;;0.39;92.82;97651.09;4973073;28;20114;-74
2021/11/26 05:46:41;;;;;;;6.40;5.80;;;;;;;0.30;93.88;97653.63;4973027;28;20384;-74
2021/11/26 05:49:07;;;;;;;2.20;2.10;;;;;;;0.44;92.84;97651.97;4972828;28;20051;-74
2021/11/26 05:51:32;;;;;;;6.53;5.95;;;;;;;0.56;92.34;97653.69;4973133;28;20073;-73
2021/11/26 05:53:57;;;;;;;6.85;6.28;;;;;;;0.45;92.10;97651.13;4972873;28;20449;-74
2021/11/26 05:56:23;;;;;;;7.10;5.95;;;;;;;0.36;92.14;97646.84;4972902;28;20484;-74
2021/11/26 05:58:48;;;;;;;4.70;3.53;;;;;;;0.48;92.39;97644.34;4971729;28;20033;-74
2021/11/26 06:01:13;;;;;;;5.82;5.25;;;;;;;0.33;92.38;97645.97;4964349;28;20026;-74
2021/11/26 06:03:39;;;;;;;3.95;3.58;;;;;;;0.49;92.00;97647.75;4972931;28;20113;-74
2021/11/26 06:06:05;;;;;;;14.55;4.75;;;;;;;0.64;91.79;97635.03;4974464;28;20439;-74
2021/11/26 06:08:30;;;;;;;4.70;3.42;;;;;;;0.53;90.97;97641.78;4976344;28;20500;-73
2021/11/26 06:10:55;;;;;;;2.40;2.30;;;;;;;0.66;91.50;97640.97;4976327;28;20035;-73
2021/11/26 06:13:21;;;;;;;5.70;4.40;;;;;;;0.69;89.45;97635.06;4976233;28;20027;-73
2021/11/26 06:15:46;;;;;;;7.78;5.30;;;;;;;0.66;89.60;97635.88;4976623;28;20027;-73
2021/11/26 06:18:12;;;;;;;3.00;2.38;;;;;;;0.99;89.87;97632.56;4976408;28;20380;-73
2021/11/26 06:20:38;;;;;;;7.78;4.85;;;;;;;1.12;90.01;97635.97;4976061;28;20061;-73
2021/11/26 06:23:03;;;;;;;6.05;4.45;;;;;;;1.14;88.74;97626.63;4976257;28;20125;-73
2021/11/26 06:25:28;;;;;;;6.53;3.05;;;;;;;1.38;89.38;97627.47;4976094;28;20034;-73
2021/11/26 06:27:54;;;;;;;5.78;4.97;;;;;;;1.38;88.61;97632.59;4976041;28;20033;-73
2021/11/26 06:30:22;;;;;;;6.38;5.70;;;;;;;1.55;88.29;97625.78;4970539;28;20035;-73
2021/11/26 06:32:49;;;;;;;11.38;3.83;;;;;;;1.35;87.61;97628.31;4972566;28;20435;-73
2021/11/26 06:35:18;;;;;;;4.20;3.85;;;;;;;0.94;87.68;97626.59;4976041;28;20396;-73
2021/11/26 06:37:43;;;;;;;5.30;4.75;;;;;;;0.90;88.63;97630.00;4975983;28;20014;-73
2021/11/26 06:40:10;;;;;;;7.13;3.85;;;;;;;1.10;87.90;97627.47;4975629;28;20042;-73
2021/11/26 06:42:35;;;;;;;5.13;4.18;;;;;;;1.21;87.79;97619.81;4975806;28;20035;-73
2021/11/26 06:45:01;;;;;;;5.57;5.05;;;;;;;1.23;88.05;97611.31;4975824;28;20532;-73
2021/11/26 06:47:26;;;;;;;7.65;4.70;;;;;;;1.21;88.55;97610.47;4976023;28;20412;-73
2021/11/26 06:49:52;;;;;;;11.93;6.57;;;;;;;0.99;88.04;97608.75;4975535;28;20391;-73
2021/11/26 06:52:17;;;;;;;5.55;4.80;;;;;;;0.89;89.34;97617.25;4975771;28;20023;-73
2021/11/26 06:54:43;;;;;;;12.13;6.35;;;;;;;0.92;91.15;97612.13;4975689;28;20046;-74
2021/11/26 06:57:09;;;;;;;4.28;3.97;;;;;;;0.94;89.11;97610.47;4975528;28;20031;-74
2021/11/26 06:59:34;;;;;;;6.40;5.70;;;;;;;0.87;89.30;97613.81;4974116;28;20110;-74
2021/11/26 07:01:59;;;;;;;5.32;4.15;;;;;;;0.85;89.36;97615.53;4967422;28;20106;-74
2021/11/26 07:04:24;;;;;;;8.95;3.85;;;;;;;0.88;89.46;97606.22;4975482;28;20026;-74
2021/11/26 07:06:50;;;;;;;9.30;6.32;;;;;;;0.69;89.77;97607.88;4975356;28;20079;-74
2021/11/26 07:09:16;;;;;;;11.20;7.78;;;;;;;0.62;89.96;97610.38;4975091;28;20122;-74
2021/11/26 07:11:41;;;;;;;7.20;3.85;;;;;;;0.74;90.37;97603.63;4975283;28;20022;-74
2021/11/26 07:14:07;;;;;;;8.45;7.50;;;;;;;0.72;90.51;97595.09;4975355;28;20062;-74
2021/11/26 07:16:32;;;;;;;7.32;4.88;;;;;;;0.75;90.13;97592.56;4975128;28;20103;-74
2021/11/26 07:18:58;;;;;;;4.95;4.53;;;;;;;0.79;89.88;97590.88;4974531;28;20465;-74
2021/11/26 07:21:24;;;;;;;8.73;6.20;;;;;;;0.79;89.72;97592.59;4975198;28;20538;-74
2021/11/26 07:23:49;;;;;;;5.80;5.25;;;;;;;0.89;89.21;97586.66;4975154;28;20030;-74
2021/11/26 07:26:15;;;;;;;7.68;5.25;;;;;;;0.81;89.22;97584.09;4974907;28;20126;-74
2021/11/26 07:28:40;;;;;;;8.65;4.88;;;;;;;0.88;89.31;97572.22;4974883;28;20130;-74
2021/11/26 07:31:06;;;;;;;8.50;6.00;;;;;;;0.95;89.24;97571.34;4965785;28;20027;-74
2021/11/26 07:33:31;;;;;;;5.70;5.15;;;;;;;0.91;88.58;97574.75;4974964;28;20034;-73
2021/11/26 07:35:57;;;;;;;4.10;3.60;;;;;;;0.77;88.28;97567.97;4975366;28;20031;-73
2021/11/26 07:38:22;;;;;;;8.18;5.45;;;;;;;0.81;89.25;97563.69;4974698;28;20022;-73
2021/11/26 07:40:49;;;;;;;13.02;5.32;;;;;;;1.05;89.42;97562.84;4974601;28;20146;-73
2021/11/26 07:43:15;;;;;;;4.78;4.38;;;;;;;1.08;90.13;97562.88;4974833;28;20384;-73
2021/11/26 07:45:41;;;;;;;6.07;5.07;;;;;;;1.28;89.54;97561.13;4974734;28;20031;-73
2021/11/26 07:48:07;;;;;;;9.48;7.72;;;;;;;0.97;87.92;97559.47;4974517;28;20049;-73
2021/11/26 07:50:32;;;;;;;10.82;7.95;;;;;;;1.19;88.91;97550.09;4973165;28;20034;-73
2021/11/26 07:52:58;;;;;;;6.93;6.32;;;;;;;1.20;87.49;97547.53;4974486;28;20023;-73
2021/11/26 07:55:23;;;;;;;8.52;4.95;;;;;;;1.22;88.51;97540.75;4974398;28;20049;-73
2021/11/26 07:57:50;;;;;;;7.43;4.82;;;;;;;1.16;88.09;97537.31;4974430;28;20384;-73
2021/11/26 08:00:15;;;;;;;7.43;5.60;;;;;;;1.26;88.05;97537.34;4969598;28;20027;-73
2021/11/26 08:02:40;;;;;;;7.68;5.13;;;;;;;1.33;86.59;97537.31;4969723;28;20034;-73
2021/11/26 08:05:06;;;;;;;7.07;5.50;;;;;;;1.07;86.67;97538.22;4974565;28;20027;-73
2021/11/26 08:07:32;;;;;;;8.25;5.28;;;;;;;1.03;87.82;97533.97;4974216;28;20393;-73
2021/11/26 08:09:57;;;;;;;5.57;5.15;;;;;;;1.06;87.47;97523.72;4973925;28;20102;-73
2021/11/26 08:12:22;;;;;;;11.23;4.40;;;;;;;1.50;88.28;97522.84;4974598;28;20034;-73
2021/11/26 08:14:51;;;;;;;3.13;2.92;;;;;;;1.35;87.11;97517.75;4974202;28;20069;-73
2021/11/26 08:17:16;;;;;;;8.02;4.55;;;;;;;1.22;88.00;97527.16;4974284;28;20026;-73
2021/11/26 08:19:42;;;;;;;9.57;6.28;;;;;;;1.06;87.92;97528.84;4974168;28;20478;-73
2021/11/26 08:22:07;;;;;;;6.43;4.78;;;;;;;1.12;87.81;97523.75;4974076;28;20434;-73
2021/11/26 08:24:33;;;;;;;6.60;4.78;;;;;;;0.97;88.14;97513.56;4973831;28;20034;-73
2021/11/26 08:26:58;;;;;;;8.85;5.55;;;;;;;1.15;88.45;97516.06;4973982;28;20030;-73
2021/11/26 08:29:24;;;;;;;4.88;4.50;;;;;;;1.34;87.34;97509.25;4971429;28;20124;-73
2021/11/26 08:31:49;;;;;;;7.22;5.80;;;;;;;1.31;87.85;97503.31;4965782;28;20042;-73
2021/11/26 08:34:15;;;;;;;9.77;5.95;;;;;;;1.62;87.64;97504.94;4973803;28;20081;-73
2021/11/26 08:36:41;;;;;;;4.38;4.03;;;;;;;1.44;86.77;97510.06;4974187;28;20460;-74
2021/11/26 08:39:08;;;;;;;6.47;4.47;;;;;;;1.88;87.76;97504.81;4973460;28;20117;-74
2021/11/26 08:41:33;;;;;;;3.55;3.25;;;;;;;1.77;84.81;97498.91;4973859;28;20022;-74
2021/11/26 08:44:00;;;;;;;6.93;4.07;;;;;;;1.98;87.44;97495.41;4973910;28;20069;-74
2021/11/26 08:46:26;;;;;;;9.18;4.32;;;;;;;2.00;85.00;97488.59;4973496;28;20062;-74
2021/11/26 08:48:51;;;;;;;5.50;5.00;;;;;;;1.73;85.01;97490.41;4973467;28;20046;-74
2021/11/26 08:51:18;;;;;;;7.32;5.20;;;;;;;1.70;86.98;97479.38;4973469;28;20022;-74
2021/11/26 08:53:46;;;;;;;8.75;7.70;;;;;;;1.41;86.53;97485.44;4973437;28;20030;-74
2021/11/26 08:56:13;;;;;;;9.43;5.88;;;;;;;1.47;86.06;97484.56;4973413;28;20480;-74
2021/11/26 08:58:38;;;;;;;5.18;4.78;;;;;;;1.28;86.77;97484.59;4973634;28;20026;-74
2021/11/26 09:01:04;;;;;;;6.75;5.95;;;;;;;1.52;87.86;97472.63;4964045;28;20019;-74
2021/11/26 09:03:31;;;;;;;7.35;5.43;;;;;;;1.59;87.65;97474.28;4973463;28;20468;-74
2021/11/26 09:05:57;;;;;;;4.40;3.78;;;;;;;1.50;86.47;97474.34;4973282;28;20034;-74
2021/11/26 09:08:22;;;;;;;10.38;4.30;;;;;;;1.45;87.25;97476.91;4973144;28;20031;-74
2021/11/26 09:10:47;;;;;;;8.63;4.93;;;;;;;1.65;86.83;97473.44;4973313;28;20030;-74
2021/11/26 09:13:15;;;;;;;7.15;6.38;;;;;;;1.51;86.04;97476.88;4973347;28;20583;-74
2021/11/26 09:15:41;;;;;;;7.47;5.45;;;;;;;1.58;85.94;97476.88;4973357;28;20110;-74
2021/11/26 09:18:08;;;;;;;7.18;4.90;;;;;;;1.65;85.67;97469.19;4973280;28;20087;-74
2021/11/26 09:20:34;;;;;;;14.05;6.38;;;;;;;1.75;86.80;97475.09;4973017;28;20026;-74
2021/11/26 09:23:00;;;;;;;8.43;4.20;;;;;;;1.67;86.85;97466.63;4972987;28;20810;-74
2021/11/26 09:25:25;;;;;;;7.78;5.15;;;;;;;1.67;86.70;97472.56;4973192;28;20033;-75
2021/11/26 09:27:51;;;;;;;4.50;4.13;;;;;;;1.95;88.90;97462.25;4973006;28;20113;-74
2021/11/26 09:30:19;;;;;;;6.63;5.70;;;;;;;1.92;85.92;97462.25;4968055;28;20113;-74
2021/11/26 09:32:45;;;;;;;6.75;4.95;;;;;;;1.96;85.96;97469.03;4968971;28;20031;-74
2021/11/26 09:35:10;;;;;;;5.15;4.25;;;;;;;2.14;85.48;97463.84;4973048;28;20490;-74
2021/11/26 09:37:37;;;;;;;6.38;5.65;;;;;;;1.85;85.07;97456.34;4972939;28;20396;-74
2021/11/26 09:40:04;;;;;;;12.82;4.32;;;;;;;1.91;85.41;97460.56;4973235;28;20030;-74
2021/11/26 09:42:30;;;;;;;10.10;7.38;;;;;;;1.93;85.20;97446.06;4976887;28;20038;-74
2021/11/26 09:44:59;;;;;;;7.03;4.25;;;;;;;2.01;84.77;97454.53;4977104;28;20113;-74
2021/11/26 09:47:24;;;;;;;4.95;3.33;;;;;;;2.09;84.06;97440.03;4976851;28;20073;-74
2021/11/26 09:49:50;;;;;;;7.70;6.68;;;;;;;2.31;85.72;97436.44;4976551;28;20046;-74
2021/11/26 09:52:15;;;;;;;7.80;5.72;;;;;;;2.38;83.88;97436.44;4976712;28;20077;-74
2021/11/26 09:54:45;;;;;;;6.10;4.57;;;;;;;2.38;85.54;97423.66;4976759;28;20033;-74
2021/11/26 09:57:11;;;;;;;3.40;3.08;;;;;;;2.47;84.69;97421.03;4976736;28;20026;-74
2021/11/26 09:59:40;;;;;;;8.20;5.95;;;;;;;2.58;83.00;97409.00;4975093;28;20030;-74
2021/11/26 10:02:14;;;;;;;4.18;3.83;;;;;;;2.51;83.75;97404.78;4968528;28;20027;-74
2021/11/26 10:04:40;;;;;;;6.63;5.07;;;;;;;2.69;84.91;97409.75;4976418;28;20030;-74
2021/11/26 10:07:06;;;;;;;5.63;4.13;;;;;;;2.62;83.85;97395.34;4976535;28;20037;-74
2021/11/26 10:09:37;;;;;;;9.65;3.95;;;;;;;2.66;83.31;97391.00;4976213;28;20066;-74
2021/11/26 10:12:10;;;;;;;6.35;3.92;;;;;;;2.86;83.65;97388.28;4976493;28;20041;-74
2021/11/26 10:14:44;;;;;;;6.80;5.13;;;;;;;2.78;81.45;97384.09;4976435;28;20027;-74
2021/11/26 10:17:13;;;;;;;3.42;3.15;;;;;;;2.76;81.49;97373.03;4976346;28;20027;-74
2021/11/26 10:19:38;;;;;;;6.22;3.90;;;;;;;2.82;79.13;97367.84;4975929;28;20488;-74
2021/11/26 10:22:23;;;;;;;6.22;5.55;;;;;;;2.56;80.88;97369.78;4976478;28;20058;-74
2021/11/26 10:25:21;;;;;;;13.70;4.78;;;;;;;2.45;81.27;97356.28;4976262;28;20081;-74
2021/11/26 10:27:49;;;;;;;10.50;5.53;;;;;;;2.50;82.47;97355.38;4975750;28;20039;-74
2021/11/26 10:30:20;;;;;;;7.65;5.00;;;;;;;2.55;81.88;97357.88;4971152;28;20059;-74
2021/11/26 10:32:53;;;;;;;4.90;4.18;;;;;;;2.58;82.88;97347.63;4972147;28;20030;-74
2021/11/26 10:35:18;;;;;;;6.55;5.25;;;;;;;2.34;82.17;97358.09;4976015;28;20454;-74
2021/11/26 10:38:03;;;;;;;11.40;6.05;;;;;;;2.24;83.32;97353.03;4975920;28;20108;-74
2021/11/26 10:40:32;;;;;;;4.57;4.13;;;;;;;2.53;83.03;97344.28;4975700;28;20030;-74
2021/11/26 10:42:59;;;;;;;7.28;4.75;;;;;;;2.69;82.28;97340.69;4976064;28;20034;-73
2021/11/26 10:45:37;;;;;;;9.90;7.35;;;;;;;2.79;80.69;97337.19;4975903;28;20030;-73
2021/11/26 10:48:41;;;;;;;4.00;3.63;;;;;;;2.61;81.27;97332.28;4975699;28;20495;-74
2021/11/26 10:51:19;;;;;;;9.18;4.70;;;;;;;2.69;82.20;97340.69;4975521;28;20396;-74
2021/11/26 10:56:57;;;;;;;4.95;4.55;;;;;;;2.76;81.59;97329.56;4975870;28;20045;-74
2021/11/26 10:59:27;;;;;;;6.18;5.57;;;;;;;2.42;82.41;97329.06;4974318;28;20046;-74
2021/11/26 11:01:53;;;;;;;4.25;2.83;;;;;;;2.25;82.80;97318.97;4967485;28;20334;-74
2021/11/26 11:04:23;;;;;;;7.35;4.82;;;;;;;2.41;83.30;97311.16;4975552;28;20050;-74
2021/11/26 11:07:03;;;;;;;;;;;;;;;2.52;83.17;97304.25;4975700;28;20097;-74
2021/11/26 11:09:43;;;;;;;8.35;3.53;;;;;;;2.51;82.34;97299.97;4975328;28;19914;-74
2021/11/26 11:12:09;;;;;;;13.23;6.78;;;;;;;2.64;82.68;97296.44;4975558;28;20031;-73
2021/11/26 11:14:34;;;;;;;5.40;4.68;;;;;;;2.51;82.42;97299.97;4975369;28;20037;-74
2021/11/26 11:17:01;;;;;;;6.53;5.90;;;;;;;2.58;83.06;97281.16;4975238;28;20073;-74
2021/11/26 11:19:27;;;;;;;5.95;4.57;;;;;;;2.54;82.47;97274.38;4974962;28;20027;-74
2021/11/26 11:21:55;;;;;;;5.95;5.13;;;;;;;2.54;82.33;97270.13;4975448;28;20102;-74
2021/11/26 11:24:21;;;;;;;9.32;5.75;;;;;;;2.52;82.39;97265.91;4975073;28;20041;-74
2021/11/26 11:26:48;;;;;;;5.15;3.80;;;;;;;2.56;81.79;97257.31;4975097;28;20105;-74
2021/11/26 11:29:19;;;;;;;5.38;4.88;;;;;;;2.70;81.73;97255.44;4973381;28;20514;-74
2021/11/26 11:31:45;;;;;;;6.50;4.50;;;;;;;2.70;82.11;97263.13;4966778;28;20069;-74
2021/11/26 11:34:13;;;;;;;5.35;4.35;;;;;;;2.88;81.57;97254.41;4975004;28;20046;-74
2021/11/26 11:36:41;;;;;;;10.40;6.53;;;;;;;2.79;80.86;97244.28;4973686;28;20387;-74
2021/11/26 11:39:07;;;;;;;5.10;3.42;;;;;;;2.87;82.05;97239.06;4974864;28;20027;-74
2021/11/26 11:43:59;;;;;;;6.38;4.75;;;;;;;2.79;80.83;97239.16;4954239;29;20058;-65
2021/11/26 11:46:35;;;;;;;11.35;5.05;;;;;;;2.67;81.47;97239.31;4955497;29;20468;-65
2021/11/26 11:49:00;;;;;;;4.75;4.32;;;;;;;2.51;82.27;97229.25;4955422;28;20039;-65
2021/11/26 11:51:29;;;;;;;8.93;5.57;;;;;;;2.58;83.17;97230.03;4955464;28;20027;-65
2021/11/26 11:54:06;;;;;;;11.10;4.68;;;;;;;2.48;83.19;97229.28;4955218;28;20542;-65
2021/11/26 11:56:48;;;;;;;11.55;5.45;;;;;;;2.45;83.33;97219.09;4955388;28;20058;-65
2021/11/26 11:59:33;;;;;;;8.40;5.55;;;;;;;2.34;83.80;97214.97;4956591;28;20019;-65
2021/11/26 12:02:00;;;;;;;5.25;4.85;;;;;;;2.30;84.79;97209.03;4966360;28;20030;-65
2021/11/26 12:04:29;;;;;;;5.63;3.15;;;;;;;2.57;84.78;97207.91;4974178;28;20029;-65
2021/11/26 12:06:54;;;;;;;7.22;3.13;;;;;;;2.64;85.51;97199.28;4974303;28;20030;-65
2021/11/26 12:09:26;;;;;;;9.60;6.05;;;;;;;2.62;84.76;97190.78;4974152;28;20138;-65
2021/11/26 12:12:08;;;;;;;4.63;4.28;;;;;;;2.70;83.80;97198.34;4974405;28;20452;-65
2021/11/26 12:14:51;;;;;;;9.70;5.47;;;;;;;2.85;84.19;97187.91;4974333;28;20023;-65
2021/11/26 12:17:34;;;;;;;7.63;4.38;;;;;;;2.76;85.01;97183.78;4974112;28;20026;-64
2021/11/26 12:20:04;;;;;;;5.97;4.65;;;;;;;2.75;84.86;97181.25;4974255;28;20030;-70
2021/11/26 12:22:56;;;;;;;8.00;5.25;;;;;;;2.80;85.02;97180.34;4974146;28;20027;-71
2021/11/26 12:28:24;;;;;;;8.95;5.22;;;;;;;3.20;83.11;97171.25;4973882;28;20069;-70
2021/11/26 12:31:01;;;;;;;6.78;5.00;;;;;;;3.16;83.14;97162.78;4963606;28;20118;-69
2021/11/26 12:33:28;;;;;;;5.45;3.80;;;;;;;3.10;83.77;97157.75;4935386;29;20035;-69
2021/11/26 12:35:55;;;;;;;3.67;3.25;;;;;;;3.13;81.58;97152.56;4935411;29;20024;-65
2021/11/26 12:38:21;;;;;;;5.18;4.65;;;;;;;2.99;82.54;97144.25;4935368;29;20031;-65
2021/11/26 12:40:46;;;;;;;5.15;3.58;;;;;;;2.93;84.16;97145.19;4934890;29;20031;-65
2021/11/26 12:43:11;;;;;;;5.13;4.10;;;;;;;3.16;82.71;97147.41;4935132;29;20036;-65
2021/11/26 12:45:37;;;;;;;4.55;4.22;;;;;;;2.96;82.84;97134.09;4935152;29;20066;-65
2021/11/26 12:48:10;;;;;;;11.05;4.38;;;;;;;3.03;84.04;97128.84;4935089;29;20027;-65
2021/11/26 12:53:23;;;;;;;4.40;4.05;;;;;;;2.86;83.17;97124.84;4935219;29;20053;-65
2021/11/26 12:55:58;;;;;;;11.27;5.45;;;;;;;2.76;83.95;97122.44;4935150;29;20075;-64
2021/11/26 12:58:24;;;;;;;7.05;4.03;;;;;;;2.76;85.61;97122.44;4935069;29;20111;-65
2021/11/26 13:01:06;;;;;;;12.45;6.53;;;;;;;2.88;84.26;97105.19;4959516;28;20027;-64
2021/11/26 13:03:47;;;;;;;4.32;4.03;;;;;;;2.76;83.81;97094.28;4934883;29;20560;-64
2021/11/26 13:06:20;;;;;;;5.43;3.97;;;;;;;2.80;84.36;97093.38;4934738;29;20027;-70
2021/11/26 13:08:56;;;;;;;13.77;7.40;;;;;;;2.80;84.39;97090.84;4935018;29;20031;-69
2021/11/26 13:11:21;;;;;;;7.03;3.50;;;;;;;2.74;84.25;97103.69;4934815;29;20024;-69
2021/11/26 13:13:47;;;;;;;6.95;5.57;;;;;;;2.70;85.30;97096.91;4934722;29;20028;-69
2021/11/26 13:16:16;;;;;;;5.60;3.58;;;;;;;2.86;84.53;97096.72;4931354;28;20035;-69
2021/11/26 13:18:42;;;;;;;2.78;2.55;;;;;;;2.88;83.38;97094.97;4934765;29;20066;-69
2021/11/26 13:21:09;;;;;;;5.68;4.50;;;;;;;2.94;84.15;97088.03;4934906;29;20110;-69
2021/11/26 13:23:37;;;;;;;3.08;2.05;;;;;;;3.18;83.32;97083.41;4934705;29;20043;-69
2021/11/26 13:26:06;;;;;;;8.18;5.25;;;;;;;3.10;82.50;97086.13;4934658;29;20509;-69
2021/11/26 13:28:35;;;;;;;9.20;4.00;;;;;;;3.03;82.83;97074.28;4934562;29;20043;-69
2021/11/26 13:31:05;;;;;;;5.87;4.33;;;;;;;3.16;83.21;97074.94;4962222;28;20122;-68
2021/11/26 13:33:33;;;;;;;4.68;4.25;;;;;;;3.26;82.61;97067.06;4973315;28;20114;-68
2021/11/26 13:36:02;;;;;;;4.18;3.63;;;;;;;3.26;81.79;97064.50;4973072;28;20023;-69
2021/11/26 13:38:34;;;;;;;4.82;3.05;;;;;;;3.19;81.89;97060.38;4972973;28;20491;-69
2021/11/26 13:41:03;;;;;;;4.07;2.80;;;;;;;3.09;82.04;97059.69;4972974;28;20031;-69
2021/11/26 13:43:33;;;;;;;3.80;3.17;;;;;;;2.88;82.79;97057.44;4972805;28;20035;-69
2021/11/26 13:46:05;;;;;;;5.15;3.95;;;;;;;3.01;83.10;97045.31;4972991;28;20739;-69
2021/11/26 13:48:36;;;;;;;4.72;4.32;;;;;;;3.01;83.01;97055.56;4972869;28;20038;-70
2021/11/26 13:51:03;;;;;;;10.93;5.05;;;;;;;3.20;83.33;97044.16;4972741;28;20018;-63
2021/11/26 13:53:29;;;;;;;4.88;4.45;;;;;;;3.12;82.34;97043.44;4972760;28;20027;-64
2021/11/26 13:55:56;;;;;;;3.72;3.42;;;;;;;3.33;81.69;97037.94;4972694;28;20034;-64
2021/11/26 13:58:21;;;;;;;3.28;3.03;;;;;;;3.57;82.35;97030.69;4972782;28;20023;-64
2021/11/26 14:00:56;;;;;;;17.55;5.22;;;;;;;3.60;80.77;97026.34;4962742;28;20026;-64
2021/11/26 14:03:32;;;;;;;3.25;3.08;;;;;;;3.39;80.96;97031.03;4934371;29;20035;-64
2021/11/26 14:06:08;;;;;;;7.05;4.70;;;;;;;3.36;81.26;97026.81;4934394;29;20102;-64
2021/11/26 14:08:49;;;;;;;4.63;3.17;;;;;;;3.41;80.21;97019.03;4934227;29;20556;-64
2021/11/26 14:11:26;;;;;;;4.35;3.63;;;;;;;3.66;80.28;97029.69;4934232;29;20091;-63
2021/11/26 14:13:53;;;;;;;3.00;2.70;;;;;;;3.45;80.97;97010.44;4934248;29;20024;-63
2021/11/26 14:16:20;;;;;;;5.10;4.70;;;;;;;3.49;80.75;97017.19;4934296;29;20514;-64
2021/11/26 14:18:57;;;;;;;3.90;3.42;;;;;;;3.32;80.93;97012.38;4934173;29;20114;-64
2021/11/26 14:21:24;;;;;;;7.35;2.78;;;;;;;3.45;81.89;97015.56;4934222;29;20024;-64
2021/11/26 14:24:02;;;;;;;5.18;3.90;;;;;;;3.29;80.89;97009.88;4934104;29;20043;-64
2021/11/26 14:26:30;;;;;;;7.57;3.22;;;;;;;3.44;81.18;96999.38;4934784;29;20027;-63
2021/11/26 14:29:22;;;;;;;5.68;5.03;;;;;;;3.57;81.43;97000.81;4938694;28;20127;-63
2021/11/26 14:31:47;;;;;;;4.68;3.25;;;;;;;3.54;80.89;96990.63;4965780;28;20106;-63
2021/11/26 14:34:15;;;;;;;5.53;4.60;;;;;;;3.37;80.71;96991.81;4975926;28;20113;-63
2021/11/26 14:36:43;;;;;;;4.93;4.28;;;;;;;3.18;81.91;96994.69;4975912;28;20026;-63
2021/11/26 14:39:09;;;;;;;7.80;4.15;;;;;;;3.39;81.02;96984.97;4975669;28;20027;-63
2021/11/26 14:41:38;;;;;;;9.05;5.30;;;;;;;3.30;81.60;96991.94;4975644;28;20115;-63
2021/11/26 14:44:13;;;;;;;2.45;2.25;;;;;;;3.28;82.64;96982.56;4975676;28;20081;-68
2021/11/26 14:47:04;;;;;;;5.72;4.90;;;;;;;3.16;83.35;96978.53;4975789;28;20476;-64
